createdAt,value
2018-10-03T00:01:25.077Z,100.00
2018-10-03T00:03:53.579Z,100.00
2018-10-03T00:06:22.115Z,100.00
2018-10-03T00:08:50.623Z,100.00
2018-10-03T00:11:19.134Z,100.00
2018-10-03T00:13:47.629Z,100.00
2018-10-03T00:16:16.168Z,100.00
2018-10-03T00:18:44.688Z,100.00
2018-10-03T00:21:13.288Z,100.00
2018-10-03T00:23:41.806Z,100.00
2018-10-03T00:26:10.333Z,100.00
2018-10-03T00:28:38.832Z,100.00
2018-10-03T00:31:07.525Z,100.00
2018-10-03T00:33:36.045Z,100.00
2018-10-03T00:36:04.589Z,100.00
2018-10-03T00:38:33.101Z,100.00
2018-10-03T00:41:01.646Z,100.00
2018-10-03T00:43:30.148Z,100.00
2018-10-03T00:45:58.652Z,100.00
2018-10-03T00:48:27.177Z,100.00
2018-10-03T00:50:55.686Z,100.00
2018-10-03T00:53:24.311Z,100.00
2018-10-03T00:55:52.821Z,100.00
2018-10-03T00:58:21.400Z,99.95
2018-10-03T01:00:53.791Z,99.76
2018-10-03T01:03:22.314Z,99.40
2018-10-03T01:05:50.831Z,99.70
2018-10-03T01:08:19.355Z,99.84
2018-10-03T01:10:47.864Z,100.00
2018-10-03T01:13:16.442Z,100.00
2018-10-03T01:15:44.951Z,100.00
2018-10-03T01:18:13.482Z,100.00
2018-10-03T01:20:41.982Z,100.00
2018-10-03T01:23:11.348Z,100.00
2018-10-03T01:25:39.854Z,100.00
2018-10-03T01:28:08.387Z,100.00
2018-10-03T01:30:36.890Z,100.00
2018-10-03T01:33:05.442Z,100.00
2018-10-03T01:35:33.935Z,100.00
2018-10-03T01:38:02.458Z,100.00
2018-10-03T01:40:30.978Z,100.00
2018-10-03T01:42:59.501Z,100.00
2018-10-03T01:45:28.067Z,100.00
2018-10-03T01:47:56.590Z,100.00
2018-10-03T01:50:25.110Z,100.00
2018-10-03T01:52:53.650Z,100.00
2018-10-03T01:55:22.150Z,100.00
2018-10-03T01:57:50.692Z,100.00
2018-10-03T02:00:19.189Z,100.00
2018-10-03T02:02:47.719Z,100.00
2018-10-03T02:05:16.224Z,100.00
2018-10-03T02:07:44.751Z,100.00
2018-10-03T02:10:13.260Z,100.00
2018-10-03T02:12:41.799Z,100.00
2018-10-03T02:15:10.328Z,100.00
2018-10-03T02:17:38.867Z,100.00
2018-10-03T02:20:08.401Z,100.00
2018-10-03T02:22:36.970Z,100.00
2018-10-03T02:25:05.533Z,100.00
2018-10-03T02:27:34.093Z,100.00
2018-10-03T02:30:02.605Z,100.00
2018-10-03T02:32:31.179Z,100.00
2018-10-03T02:34:59.740Z,100.00
2018-10-03T02:37:28.276Z,100.00
2018-10-03T02:39:56.795Z,100.00
2018-10-03T02:42:25.309Z,99.66
2018-10-03T02:44:53.807Z,99.65
2018-10-03T02:47:22.352Z,99.70
2018-10-03T02:49:50.856Z,99.42
2018-10-03T02:52:19.358Z,100.00
2018-10-03T02:54:47.887Z,100.00
2018-10-03T02:57:16.373Z,100.00
2018-10-03T02:59:44.899Z,100.00
2018-10-03T03:02:13.399Z,100.00
2018-10-03T03:04:41.926Z,100.00
2018-10-03T03:07:10.438Z,100.00
2018-10-03T03:09:38.966Z,100.00
2018-10-03T03:12:07.704Z,100.00
2018-10-03T03:14:36.466Z,100.00
2018-10-03T03:17:04.987Z,100.00
2018-10-03T03:19:33.536Z,100.00
2018-10-03T03:22:02.040Z,100.00
2018-10-03T03:24:30.554Z,100.00
2018-10-03T03:26:59.054Z,100.00
2018-10-03T03:29:27.577Z,99.88
2018-10-03T03:31:56.150Z,99.88
2018-10-03T03:34:24.697Z,100.00
2018-10-03T03:36:53.203Z,99.91
2018-10-03T03:39:21.733Z,100.00
2018-10-03T03:41:50.239Z,100.00
2018-10-03T03:44:18.766Z,99.88
2018-10-03T03:46:47.273Z,100.00
2018-10-03T03:49:15.798Z,99.88
2018-10-03T03:51:44.302Z,99.65
2018-10-03T03:54:12.836Z,100.00
2018-10-03T03:56:41.334Z,100.00
2018-10-03T03:59:09.854Z,99.71
2018-10-03T04:01:38.357Z,100.00
2018-10-03T04:04:06.934Z,99.84
2018-10-03T04:06:35.434Z,99.77
2018-10-03T04:09:05.226Z,99.99
2018-10-03T04:11:33.721Z,99.99
2018-10-03T04:14:02.263Z,99.61
2018-10-03T04:16:30.996Z,99.38
2018-10-03T04:18:59.512Z,99.21
2018-10-03T04:21:32.715Z,99.40
2018-10-03T04:24:01.231Z,99.17
2018-10-03T04:26:29.721Z,99.34
2018-10-03T04:28:58.232Z,99.29
2018-10-03T04:31:26.746Z,99.13
2018-10-03T04:33:55.303Z,99.39
2018-10-03T04:36:24.126Z,99.47
2018-10-03T04:38:52.654Z,99.77
2018-10-03T04:41:21.426Z,100.00
2018-10-03T04:43:50.015Z,100.00
2018-10-03T04:46:18.557Z,100.00
2018-10-03T04:48:47.115Z,100.00
2018-10-03T04:51:15.693Z,100.00
2018-10-03T04:53:44.227Z,100.00
2018-10-03T04:56:12.718Z,100.00
2018-10-03T04:58:41.236Z,100.00
2018-10-03T05:01:10.686Z,100.00
2018-10-03T05:03:39.213Z,100.00
2018-10-03T05:06:08.399Z,100.00
2018-10-03T05:08:37.302Z,100.00
2018-10-03T05:11:05.827Z,100.00
2018-10-03T05:13:34.434Z,100.00
2018-10-03T05:16:03.002Z,100.00
2018-10-03T05:18:31.513Z,100.00
2018-10-03T05:21:00.166Z,100.00
2018-10-03T05:23:28.702Z,100.00
2018-10-03T05:25:57.236Z,100.00
2018-10-03T05:28:25.738Z,100.00
2018-10-03T05:30:54.279Z,100.00
2018-10-03T05:33:22.912Z,100.00
2018-10-03T05:35:51.358Z,100.00
2018-10-03T05:38:19.854Z,100.00
2018-10-03T05:40:48.399Z,100.00
2018-10-03T05:43:16.900Z,100.00
2018-10-03T05:45:45.445Z,100.00
2018-10-03T05:48:13.995Z,100.00
2018-10-03T05:50:42.489Z,100.00
2018-10-03T05:53:11.004Z,100.00
2018-10-03T05:55:39.542Z,100.00
2018-10-03T05:58:08.061Z,100.00
2018-10-03T06:00:36.630Z,100.00
2018-10-03T06:03:05.175Z,100.00
2018-10-03T06:05:33.764Z,100.00
2018-10-03T06:08:02.274Z,100.00
2018-10-03T06:10:30.820Z,100.00
2018-10-03T06:12:59.324Z,100.00
2018-10-03T06:15:27.850Z,100.00
2018-10-03T06:17:56.358Z,100.00
2018-10-03T06:20:24.896Z,100.00
2018-10-03T06:22:53.387Z,100.00
2018-10-03T06:25:21.934Z,100.00
2018-10-03T06:27:50.479Z,100.00
2018-10-03T06:30:19.018Z,100.00
2018-10-03T06:32:47.528Z,100.00
2018-10-03T06:35:16.792Z,100.00
2018-10-03T06:37:45.310Z,99.84
2018-10-03T06:40:13.880Z,99.80
2018-10-03T06:42:42.390Z,100.00
2018-10-03T06:45:10.918Z,100.00
2018-10-03T06:47:39.415Z,99.44
2018-10-03T06:50:07.953Z,99.36
2018-10-03T06:52:36.447Z,99.00
2018-10-03T06:55:05.052Z,98.76
2018-10-03T06:57:33.555Z,98.55
2018-10-03T07:00:02.096Z,98.48
2018-10-03T07:02:30.618Z,97.72
2018-10-03T07:04:59.129Z,97.61
2018-10-03T07:07:27.707Z,97.64
2018-10-03T07:09:56.226Z,96.85
2018-10-03T07:12:24.757Z,96.86
2018-10-03T07:14:53.268Z,97.24
2018-10-03T07:17:21.786Z,97.57
2018-10-03T07:19:50.294Z,97.10
2018-10-03T07:22:18.816Z,97.13
2018-10-03T07:24:47.325Z,95.94
2018-10-03T07:27:15.863Z,95.12
2018-10-03T07:29:44.366Z,95.70
2018-10-03T07:32:12.901Z,95.36
2018-10-03T07:34:41.422Z,94.47
2018-10-03T07:37:09.960Z,94.54
2018-10-03T07:39:38.481Z,92.87
2018-10-03T07:42:07.018Z,92.44
2018-10-03T07:44:35.542Z,92.10
2018-10-03T07:47:04.090Z,92.51
2018-10-03T07:49:32.587Z,91.19
2018-10-03T07:52:01.122Z,90.41
2018-10-03T07:54:29.633Z,90.22
2018-10-03T07:56:58.173Z,90.16
2018-10-03T07:59:26.678Z,89.70
2018-10-03T08:02:02.040Z,88.73
2018-10-03T08:04:30.551Z,87.29
2018-10-03T08:06:59.101Z,87.92
2018-10-03T08:09:27.607Z,86.96
2018-10-03T08:11:56.163Z,86.78
2018-10-03T08:14:24.675Z,84.76
2018-10-03T08:16:53.230Z,84.24
2018-10-03T08:19:21.754Z,81.85
2018-10-03T08:21:50.273Z,83.20
2018-10-03T08:24:18.786Z,83.15
2018-10-03T08:26:47.314Z,81.29
2018-10-03T08:29:15.830Z,81.55
2018-10-03T08:31:44.361Z,80.73
2018-10-03T08:34:12.882Z,82.39
2018-10-03T08:36:41.425Z,81.54
2018-10-03T08:39:11.809Z,78.88
2018-10-03T08:41:40.367Z,80.04
2018-10-03T08:44:09.346Z,81.21
2018-10-03T08:46:37.890Z,79.33
2018-10-03T08:49:06.610Z,78.59
2018-10-03T08:51:35.237Z,78.47
2018-10-03T08:54:03.778Z,79.15
2018-10-03T08:56:32.303Z,78.39
2018-10-03T08:59:00.804Z,75.98
2018-10-03T09:01:29.356Z,76.72
2018-10-03T09:03:57.862Z,77.44
2018-10-03T09:06:26.379Z,77.30
2018-10-03T09:08:54.918Z,75.43
2018-10-03T09:11:23.424Z,75.25
2018-10-03T09:13:51.953Z,72.53
2018-10-03T09:16:20.470Z,73.18
2018-10-03T09:18:48.999Z,72.30
2018-10-03T09:21:17.527Z,70.14
2018-10-03T09:23:46.083Z,70.91
2018-10-03T09:26:14.605Z,71.01
2018-10-03T09:28:43.152Z,68.34
2018-10-03T09:31:11.659Z,72.25
2018-10-03T09:33:40.206Z,71.16
2018-10-03T09:36:08.717Z,71.39
2018-10-03T09:38:37.251Z,71.85
2018-10-03T09:41:05.774Z,69.38
2018-10-03T09:43:34.311Z,70.58
2018-10-03T09:46:02.914Z,68.35
2018-10-03T09:48:31.702Z,68.31
2018-10-03T09:51:00.203Z,69.62
2018-10-03T09:53:28.745Z,68.11
2018-10-03T09:55:57.258Z,68.04
2018-10-03T09:58:25.777Z,68.53
2018-10-03T10:00:59.835Z,68.67
2018-10-03T10:03:28.319Z,70.32
2018-10-03T10:05:56.840Z,68.48
2018-10-03T10:08:25.377Z,71.21
2018-10-03T10:10:53.889Z,69.01
2018-10-03T10:13:22.415Z,70.26
2018-10-03T10:15:51.041Z,72.20
2018-10-03T10:18:19.677Z,70.51
2018-10-03T10:20:48.262Z,69.91
2018-10-03T10:23:16.778Z,67.37
2018-10-03T10:25:45.289Z,70.95
2018-10-03T10:28:13.822Z,67.92
2018-10-03T10:30:42.326Z,68.26
2018-10-03T10:33:10.923Z,63.27
2018-10-03T10:35:39.410Z,66.10
2018-10-03T10:38:07.929Z,64.26
2018-10-03T10:40:36.636Z,63.39
2018-10-03T10:43:05.007Z,64.03
2018-10-03T10:45:33.510Z,62.37
2018-10-03T10:48:02.027Z,64.03
2018-10-03T10:50:30.557Z,64.99
2018-10-03T10:52:59.065Z,65.02
2018-10-03T10:55:27.595Z,64.49
2018-10-03T10:57:56.109Z,62.95
2018-10-03T11:00:24.617Z,64.00
2018-10-03T11:02:53.190Z,59.46
2018-10-03T11:05:21.693Z,59.21
2018-10-03T11:07:50.264Z,59.37
2018-10-03T11:10:18.763Z,60.16
2018-10-03T11:12:47.260Z,62.89
2018-10-03T11:15:15.804Z,61.54
2018-10-03T11:17:44.293Z,59.27
2018-10-03T11:20:12.820Z,59.23
2018-10-03T11:22:41.309Z,60.26
2018-10-03T11:25:09.826Z,62.54
2018-10-03T11:27:38.315Z,57.56
2018-10-03T11:30:06.964Z,59.66
2018-10-03T11:32:35.466Z,62.16
2018-10-03T11:35:04.021Z,58.68
2018-10-03T11:37:32.521Z,59.22
2018-10-03T11:40:01.054Z,57.10
2018-10-03T11:42:29.551Z,62.02
2018-10-03T11:44:58.080Z,59.63
2018-10-03T11:47:26.570Z,61.76
2018-10-03T11:49:55.089Z,59.54
2018-10-03T11:52:23.582Z,62.02
2018-10-03T11:54:52.105Z,60.66
2018-10-03T11:57:20.718Z,61.88
2018-10-03T11:59:49.280Z,61.26
2018-10-03T12:02:17.784Z,60.46
2018-10-03T12:04:46.312Z,60.90
2018-10-03T12:07:14.789Z,60.16
2018-10-03T12:09:43.294Z,58.51
2018-10-03T12:12:11.797Z,58.46
2018-10-03T12:14:40.313Z,59.51
2018-10-03T12:17:08.813Z,55.21
2018-10-03T12:19:37.339Z,56.03
2018-10-03T12:22:05.851Z,59.48
2018-10-03T12:24:34.374Z,56.91
2018-10-03T12:27:02.886Z,57.08
2018-10-03T12:29:31.423Z,56.92
2018-10-03T12:31:59.947Z,54.49
2018-10-03T12:34:28.490Z,54.64
2018-10-03T12:36:56.999Z,57.14
2018-10-03T12:39:25.532Z,57.12
2018-10-03T12:41:54.042Z,56.25
2018-10-03T12:44:22.562Z,54.43
2018-10-03T12:46:51.067Z,55.21
2018-10-03T12:49:19.590Z,55.52
2018-10-03T12:51:48.088Z,55.18
2018-10-03T12:54:16.607Z,54.26
2018-10-03T12:56:45.114Z,56.96
2018-10-03T12:59:13.632Z,54.78
2018-10-03T13:01:42.138Z,55.73
2018-10-03T13:04:10.661Z,56.94
2018-10-03T13:06:39.174Z,57.25
2018-10-03T13:09:12.836Z,56.71
2018-10-03T13:11:41.825Z,56.39
2018-10-03T13:14:10.365Z,55.36
2018-10-03T13:16:38.914Z,55.55
2018-10-03T13:19:07.443Z,57.97
2018-10-03T13:21:35.961Z,52.50
2018-10-03T13:24:04.505Z,54.25
2018-10-03T13:26:33.381Z,54.37
2018-10-03T13:29:01.893Z,56.60
2018-10-03T13:31:30.419Z,57.02
2018-10-03T13:33:59.009Z,54.46
2018-10-03T13:36:27.546Z,55.85
2018-10-03T13:38:56.054Z,56.27
2018-10-03T13:41:24.724Z,55.51
2018-10-03T13:43:53.247Z,55.55
2018-10-03T13:46:21.782Z,57.43
2018-10-03T13:48:50.298Z,57.89
2018-10-03T13:51:18.853Z,59.07
2018-10-03T13:53:47.362Z,59.51
2018-10-03T13:56:15.879Z,57.85
2018-10-03T13:58:44.380Z,59.04
2018-10-03T14:01:12.913Z,59.11
2018-10-03T14:03:41.426Z,61.14
2018-10-03T14:06:09.959Z,61.13
2018-10-03T14:08:38.445Z,62.91
2018-10-03T14:11:07.226Z,63.67
2018-10-03T14:13:35.734Z,64.57
2018-10-03T14:16:04.248Z,65.97
2018-10-03T14:18:32.769Z,68.15
2018-10-03T14:21:01.300Z,68.49
2018-10-03T14:23:29.791Z,66.44
2018-10-03T14:25:58.342Z,67.26
2018-10-03T14:28:26.833Z,66.97
2018-10-03T14:30:55.349Z,64.17
2018-10-03T14:33:24.051Z,62.55
2018-10-03T14:35:52.414Z,61.99
2018-10-03T14:38:20.919Z,62.89
2018-10-03T14:40:49.438Z,65.26
2018-10-03T14:43:17.933Z,63.06
2018-10-03T14:45:46.445Z,62.84
2018-10-03T14:48:14.954Z,63.35
2018-10-03T14:50:43.491Z,63.63
2018-10-03T14:53:11.993Z,66.55
2018-10-03T14:55:40.507Z,74.52
2018-10-03T14:58:09.007Z,78.69
2018-10-03T15:00:37.550Z,81.49
2018-10-03T15:03:06.073Z,81.74
2018-10-03T15:05:34.617Z,82.92
2018-10-03T15:08:03.175Z,82.56
2018-10-03T15:10:31.695Z,81.34
2018-10-03T15:13:00.207Z,80.97
2018-10-03T15:15:28.718Z,80.94
2018-10-03T15:17:57.246Z,82.28
2018-10-03T15:20:25.746Z,83.32
2018-10-03T15:22:54.293Z,82.81
2018-10-03T15:25:23.011Z,83.31
2018-10-03T15:27:51.539Z,83.83
2018-10-03T15:30:20.104Z,84.56
2018-10-03T15:32:48.673Z,84.05
2018-10-03T15:35:17.220Z,83.24
2018-10-03T15:37:45.777Z,83.89
2018-10-03T15:40:14.286Z,83.84
2018-10-03T15:42:42.887Z,83.98
2018-10-03T15:45:11.406Z,84.06
2018-10-03T15:47:40.000Z,84.23
2018-10-03T15:50:09.469Z,84.21
2018-10-03T15:52:38.289Z,83.72
2018-10-03T15:55:06.906Z,83.37
2018-10-03T15:57:35.391Z,84.37
2018-10-03T16:00:03.955Z,85.24
2018-10-03T16:02:32.490Z,86.08
2018-10-03T16:05:01.010Z,85.21
2018-10-03T16:07:29.549Z,85.73
2018-10-03T16:09:58.058Z,85.70
2018-10-03T16:12:26.591Z,85.16
2018-10-03T16:14:55.084Z,85.17
2018-10-03T16:17:23.626Z,85.19
2018-10-03T16:19:52.193Z,83.50
2018-10-03T16:22:20.729Z,84.07
2018-10-03T16:24:49.233Z,83.65
2018-10-03T16:27:17.758Z,84.22
2018-10-03T16:29:46.265Z,83.82
2018-10-03T16:32:14.850Z,84.26
2018-10-03T16:34:43.341Z,84.47
2018-10-03T16:37:11.860Z,84.16
2018-10-03T16:39:40.380Z,84.21
2018-10-03T16:42:08.905Z,84.66
2018-10-03T16:44:37.406Z,84.97
2018-10-03T16:47:06.010Z,85.49
2018-10-03T16:49:34.511Z,85.83
2018-10-03T16:52:03.034Z,85.70
2018-10-03T16:54:31.525Z,86.10
2018-10-03T16:57:00.049Z,86.13
2018-10-03T16:59:28.556Z,86.49
2018-10-03T17:01:57.084Z,86.98
2018-10-03T17:04:25.585Z,87.67
2018-10-03T17:06:54.144Z,88.11
2018-10-03T17:09:22.641Z,88.34
2018-10-03T17:11:51.139Z,88.78
2018-10-03T17:14:23.645Z,88.87
2018-10-03T17:16:52.822Z,89.08
2018-10-03T17:19:21.629Z,89.32
2018-10-03T17:21:51.151Z,89.72
2018-10-03T17:24:20.702Z,89.83
2018-10-03T17:26:49.233Z,90.01
2018-10-03T17:29:17.824Z,90.30
2018-10-03T17:31:46.772Z,90.04
2018-10-03T17:34:16.242Z,90.19
2018-10-03T17:36:46.282Z,89.08
2018-10-03T17:39:15.286Z,88.53
2018-10-03T17:41:44.566Z,88.08
2018-10-03T17:44:13.913Z,87.62
2018-10-03T17:46:42.421Z,86.96
2018-10-03T17:49:10.965Z,86.84
2018-10-03T17:51:39.506Z,86.57
2018-10-03T17:54:08.032Z,86.55
2018-10-03T17:56:36.558Z,85.71
2018-10-03T17:59:05.147Z,85.79
2018-10-03T18:01:35.090Z,85.83
2018-10-03T18:04:03.590Z,85.61
2018-10-03T18:06:32.119Z,85.35
2018-10-03T18:09:00.634Z,85.73
2018-10-03T18:11:29.170Z,85.92
2018-10-03T18:13:57.726Z,86.04
2018-10-03T18:16:26.227Z,85.85
2018-10-03T18:18:54.793Z,85.76
2018-10-03T18:21:23.313Z,85.81
2018-10-03T18:23:51.817Z,86.44
2018-10-03T18:26:20.341Z,86.55
2018-10-03T18:28:48.848Z,86.63
2018-10-03T18:31:17.442Z,86.54
2018-10-03T18:33:45.954Z,85.68
2018-10-03T18:36:14.460Z,85.67
2018-10-03T18:38:42.974Z,85.61
2018-10-03T18:41:11.499Z,86.34
2018-10-03T18:43:40.008Z,86.23
2018-10-03T18:46:08.548Z,86.70
2018-10-03T18:48:37.062Z,86.83
2018-10-03T18:51:05.593Z,87.14
2018-10-03T18:53:34.099Z,87.32
2018-10-03T18:56:02.620Z,87.36
2018-10-03T18:58:31.139Z,87.71
2018-10-03T19:00:59.661Z,87.76
2018-10-03T19:03:28.151Z,88.07
2018-10-03T19:05:56.755Z,88.25
2018-10-03T19:08:25.224Z,88.10
2018-10-03T19:10:53.738Z,88.24
2018-10-03T19:13:22.229Z,88.25
2018-10-03T19:15:50.775Z,88.67
2018-10-03T19:18:19.297Z,88.40
2018-10-03T19:20:47.814Z,88.82
2018-10-03T19:23:16.307Z,88.59
2018-10-03T19:25:44.847Z,88.49
2018-10-03T19:28:13.339Z,88.57
2018-10-03T19:30:41.877Z,88.36
2018-10-03T19:33:10.401Z,88.72
2018-10-03T19:35:39.235Z,88.64
2018-10-03T19:38:07.779Z,88.86
2018-10-03T19:40:36.281Z,89.08
2018-10-03T19:43:04.809Z,89.02
2018-10-03T19:45:33.310Z,89.24
2018-10-03T19:48:01.913Z,89.49
2018-10-03T19:50:30.387Z,89.68
2018-10-03T19:52:58.918Z,89.90
2018-10-03T19:55:27.483Z,90.00
2018-10-03T19:57:56.002Z,90.31
2018-10-03T20:00:24.502Z,90.31
2018-10-03T20:02:53.016Z,90.90
2018-10-03T20:05:21.902Z,90.95
2018-10-03T20:07:50.433Z,91.08
2018-10-03T20:10:18.938Z,91.27
2018-10-03T20:12:47.449Z,91.27
2018-10-03T20:15:15.957Z,91.54
2018-10-03T20:17:44.486Z,91.97
2018-10-03T20:20:12.989Z,92.01
2018-10-03T20:22:41.505Z,92.15
2018-10-03T20:25:10.006Z,92.50
2018-10-03T20:27:38.535Z,92.54
2018-10-03T20:30:07.184Z,92.81
2018-10-03T20:32:35.744Z,93.23
2018-10-03T20:35:04.291Z,93.49
2018-10-03T20:37:32.790Z,93.58
2018-10-03T20:40:01.310Z,93.88
2018-10-03T20:42:29.813Z,94.27
2018-10-03T20:44:58.343Z,94.52
2018-10-03T20:47:26.850Z,94.61
2018-10-03T20:49:55.377Z,94.59
2018-10-03T20:52:23.961Z,94.64
2018-10-03T20:54:52.479Z,94.86
2018-10-03T20:57:20.978Z,95.01
2018-10-03T20:59:49.492Z,95.17
2018-10-03T21:02:18.006Z,95.15
2018-10-03T21:04:46.519Z,95.09
2018-10-03T21:07:15.017Z,94.90
2018-10-03T21:09:43.551Z,94.90
2018-10-03T21:12:12.049Z,94.99
2018-10-03T21:14:40.566Z,94.86
2018-10-03T21:17:09.052Z,94.97
2018-10-03T21:19:37.568Z,94.91
2018-10-03T21:22:06.088Z,94.82
2018-10-03T21:24:34.628Z,94.98
2018-10-03T21:27:03.120Z,95.42
2018-10-03T21:29:31.625Z,95.57
2018-10-03T21:32:00.130Z,96.25
2018-10-03T21:34:28.696Z,96.32
2018-10-03T21:36:57.194Z,96.49
2018-10-03T21:39:25.685Z,97.05
2018-10-03T21:41:54.210Z,97.54
2018-10-03T21:44:22.719Z,98.21
2018-10-03T21:46:51.235Z,98.29
2018-10-03T21:49:19.778Z,98.54
2018-10-03T21:51:48.316Z,98.67
2018-10-03T21:54:16.838Z,98.91
2018-10-03T21:56:45.361Z,99.37
2018-10-03T21:59:13.944Z,99.57
2018-10-03T22:01:42.594Z,99.70
2018-10-03T22:04:11.094Z,99.73
2018-10-03T22:06:39.622Z,99.86
2018-10-03T22:09:08.978Z,99.61
2018-10-03T22:11:37.488Z,99.69
2018-10-03T22:14:05.990Z,100.00
2018-10-03T22:16:34.513Z,100.00
2018-10-03T22:19:03.065Z,100.00
2018-10-03T22:21:31.591Z,100.00
2018-10-03T22:24:00.121Z,100.00
2018-10-03T22:26:28.648Z,100.00
2018-10-03T22:28:57.145Z,100.00
2018-10-03T22:31:25.679Z,100.00
2018-10-03T22:33:54.313Z,100.00
2018-10-03T22:36:22.834Z,100.00
2018-10-03T22:38:51.332Z,100.00
2018-10-03T22:41:19.851Z,100.00
2018-10-03T22:43:48.353Z,100.00
2018-10-03T22:46:16.872Z,100.00
2018-10-03T22:48:45.380Z,100.00
2018-10-03T22:51:13.919Z,100.00
2018-10-03T22:53:42.421Z,100.00
2018-10-03T22:56:10.953Z,100.00
2018-10-03T22:58:39.453Z,100.00
2018-10-03T23:01:08.009Z,100.00
2018-10-03T23:03:36.513Z,100.00
2018-10-03T23:06:05.061Z,100.00
2018-10-03T23:08:33.634Z,100.00
2018-10-03T23:11:02.182Z,100.00
2018-10-03T23:13:30.673Z,100.00
2018-10-03T23:15:59.187Z,100.00
2018-10-03T23:18:27.707Z,100.00
2018-10-03T23:20:56.253Z,100.00
2018-10-03T23:23:24.762Z,100.00
2018-10-03T23:25:53.261Z,100.00
2018-10-03T23:28:21.793Z,100.00
2018-10-03T23:30:50.297Z,100.00
2018-10-03T23:33:18.847Z,100.00
2018-10-03T23:35:47.351Z,100.00
2018-10-03T23:38:15.896Z,100.00
2018-10-03T23:40:44.408Z,100.00
2018-10-03T23:43:12.935Z,100.00
2018-10-03T23:45:41.466Z,100.00
2018-10-03T23:48:10.063Z,100.00
2018-10-03T23:50:38.576Z,100.00
2018-10-03T23:53:07.116Z,100.00
2018-10-03T23:55:35.616Z,100.00
2018-10-03T23:58:04.153Z,100.00
